Quick Links (Output Below):   Max & Min Temps   /   Climate Reports   /   Zone Forecasts
River Forecasts   /   Forestry Forecasts   /   Aviation Forecasts   /   Radars   /   Features

Terminal Aerodrome Forecast (Fort Smith)

Pick a Site:
Arkadelphia | El Dorado | Fayetteville | Fort Smith | Harrison | Highfill | Hot Springs | Jonesboro
Little Rock | Monticello | Mountain Home | Pine Bluff | Texarkana
 Forecast 

KFSM 261720Z 2618/2718 02009KT P6SM BKN100
     FM262100 36008KT P6SM FEW250
     FM270000 36003KT P6SM SKC=


 Latest METARs (Observations) 
How to Decode METARs
22Z KFSM 262153Z 36008KT 10SM CLR 27/06 A3010 RMK AO2 SLP190
         T02670061
         
21Z KFSM 262053Z 04008KT 10SM CLR 27/09 A3012 RMK AO2 SLP194 T02670094
         56028
         
20Z KFSM 261953Z VRB06KT 10SM CLR 25/11 A3014 RMK AO2 SLP200
         T02500106
         
19Z KFSM 261853Z 05008KT 10SM CLR 25/11 A3017 RMK AO2 SLP211
         T02500106
         
18Z KFSM 261753Z 06007KT 10SM CLR 23/11 A3020 RMK AO2 SLP223 60000
         T02330106 10239 20178 58006
         
17Z KFSM 261653Z 08005KT 10SM CLR 22/11 A3022 RMK AO2 SLP229
         T02220106
         
16Z KFSM 261553Z 02004KT 10SM FEW085 OVC100 21/13 A3023 RMK AO2 SLP234
         T02060128
         
15Z KFSM 261453Z 35003KT 10SM OVC070 19/13 A3022 RMK AO2 SLP229 60000
         T01940133 53015
         
14Z KFSM 261353Z 02004KT 10SM OVC070 19/13 A3020 RMK AO2 RAB11E21
         SLP223 P0000 T01890133
         
13Z KFSM 261253Z 36004KT 10SM OVC065 18/13 A3019 RMK AO2 RAE14 SLP219
         P0000 T01830133
         
***** Today's Observations (Above) *****


Back to Main Page
http://www.srh.noaa.gov/lzk/qfcst.php

USA.gov is the U.S. government's official web portal to all federal, state and local government web resources and services.